sensor_id;sensor_type;location;lat;lon;timestamp;P1;durP1;ratioP1;P2;durP2;ratioP2
12888;SDS011;56848;49.896;11.424;2022-07-23T04:02:52;11.67;;;8.17;;
12888;SDS011;56848;49.896;11.424;2022-07-23T04:05:21;10.80;;;8.07;;
12888;SDS011;56848;49.896;11.424;2022-07-23T04:07:47;11.97;;;8.50;;
12888;SDS011;56848;49.896;11.424;2022-07-23T04:10:19;14.77;;;7.77;;
12888;SDS011;56848;49.896;11.424;2022-07-23T04:12:45;12.30;;;8.30;;
12888;SDS011;56848;49.896;11.424;2022-07-23T04:17:49;14.00;;;9.50;;
12888;SDS011;56848;49.896;11.424;2022-07-23T04:20:18;12.63;;;8.17;;
12888;SDS011;56848;49.896;11.424;2022-07-23T04:22:46;18.03;;;9.03;;
12888;SDS011;56848;49.896;11.424;2022-07-23T04:25:15;9.30;;;7.83;;
12888;SDS011;56848;49.896;11.424;2022-07-23T04:27:46;9.00;;;8.10;;
12888;SDS011;56848;49.896;11.424;2022-07-23T04:30:16;8.47;;;7.53;;
12888;SDS011;56848;49.896;11.424;2022-07-23T04:32:42;11.63;;;8.43;;
12888;SDS011;56848;49.896;11.424;2022-07-23T04:35:11;11.73;;;8.67;;
12888;SDS011;56848;49.896;11.424;2022-07-23T04:37:37;12.70;;;9.43;;
12888;SDS011;56848;49.896;11.424;2022-07-23T04:40:03;12.30;;;9.00;;
12888;SDS011;56848;49.896;11.424;2022-07-23T04:42:34;10.53;;;8.27;;
12888;SDS011;56848;49.896;11.424;2022-07-23T04:45:00;12.10;;;8.13;;
12888;SDS011;56848;49.896;11.424;2022-07-23T04:47:26;10.23;;;8.27;;
12888;SDS011;56848;49.896;11.424;2022-07-23T04:49:52;9.30;;;7.63;;
12888;SDS011;56848;49.896;11.424;2022-07-23T04:52:18;11.63;;;8.70;;
12888;SDS011;56848;49.896;11.424;2022-07-23T04:54:44;9.33;;;7.77;;
12888;SDS011;56848;49.896;11.424;2022-07-23T04:57:10;36.73;;;9.67;;
12888;SDS011;56848;49.896;11.424;2022-07-23T04:59:36;54.00;;;8.80;;
12888;SDS011;56848;49.896;11.424;2022-07-23T05:02:02;73.40;;;9.90;;
12888;SDS011;56848;49.896;11.424;2022-07-23T05:04:31;45.77;;;8.43;;
12888;SDS011;56848;49.896;11.424;2022-07-23T05:06:57;25.73;;;7.77;;
12888;SDS011;56848;49.896;11.424;2022-07-23T05:09:24;101.90;;;10.90;;
12888;SDS011;56848;49.896;11.424;2022-07-23T05:11:59;42.73;;;8.47;;
12888;SDS011;56848;49.896;11.424;2022-07-23T05:14:26;31.53;;;8.30;;
12888;SDS011;56848;49.896;11.424;2022-07-23T05:16:52;27.73;;;8.30;;
12888;SDS011;56848;49.896;11.424;2022-07-23T05:19:19;33.67;;;9.07;;
12888;SDS011;56848;49.896;11.424;2022-07-23T05:21:45;24.43;;;8.30;;
12888;SDS011;56848;49.896;11.424;2022-07-23T05:24:11;48.87;;;8.30;;
12888;SDS011;56848;49.896;11.424;2022-07-23T05:26:37;14.07;;;7.67;;
12888;SDS011;56848;49.896;11.424;2022-07-23T05:29:03;19.40;;;8.07;;
12888;SDS011;56848;49.896;11.424;2022-07-23T05:31:34;46.23;;;9.47;;
12888;SDS011;56848;49.896;11.424;2022-07-23T05:34:00;11.50;;;7.17;;
12888;SDS011;56848;49.896;11.424;2022-07-23T05:36:26;187.07;;;12.30;;
12888;SDS011;56848;49.896;11.424;2022-07-23T05:38:52;17.50;;;7.90;;
12888;SDS011;56848;49.896;11.424;2022-07-23T05:41:18;9.00;;;7.47;;
12888;SDS011;56848;49.896;11.424;2022-07-23T05:43:44;8.63;;;7.10;;
12888;SDS011;56848;49.896;11.424;2022-07-23T05:46:10;8.73;;;7.33;;
12888;SDS011;56848;49.896;11.424;2022-07-23T05:48:38;9.37;;;7.90;;
12888;SDS011;56848;49.896;11.424;2022-07-23T05:51:05;12.83;;;7.20;;
12888;SDS011;56848;49.896;11.424;2022-07-23T05:53:31;9.60;;;6.93;;
12888;SDS011;56848;49.896;11.424;2022-07-23T05:55:58;11.63;;;7.90;;
12888;SDS011;56848;49.896;11.424;2022-07-23T05:58:24;9.03;;;6.90;;
12888;SDS011;56848;49.896;11.424;2022-07-23T06:00:50;15.13;;;7.13;;
12888;SDS011;56848;49.896;11.424;2022-07-23T06:03:16;10.40;;;6.93;;
12888;SDS011;56848;49.896;11.424;2022-07-23T06:05:42;10.60;;;6.80;;
12888;SDS011;56848;49.896;11.424;2022-07-23T06:08:08;7.53;;;6.70;;
12888;SDS011;56848;49.896;11.424;2022-07-23T06:10:34;8.90;;;6.60;;
12888;SDS011;56848;49.896;11.424;2022-07-23T06:13:00;9.17;;;6.63;;
12888;SDS011;56848;49.896;11.424;2022-07-23T06:15:26;22.00;;;7.90;;
12888;SDS011;56848;49.896;11.424;2022-07-23T06:17:52;9.13;;;7.33;;
12888;SDS011;56848;49.896;11.424;2022-07-23T06:20:18;8.90;;;6.40;;
12888;SDS011;56848;49.896;11.424;2022-07-23T06:22:44;11.23;;;6.60;;
12888;SDS011;56848;49.896;11.424;2022-07-23T06:25:10;7.20;;;6.50;;
12888;SDS011;56848;49.896;11.424;2022-07-23T06:27:36;7.17;;;6.43;;
12888;SDS011;56848;49.896;11.424;2022-07-23T06:30:02;8.17;;;6.67;;
12888;SDS011;56848;49.896;11.424;2022-07-23T06:32:28;7.77;;;6.60;;
12888;SDS011;56848;49.896;11.424;2022-07-23T06:34:54;7.73;;;6.27;;
12888;SDS011;56848;49.896;11.424;2022-07-23T06:37:20;7.33;;;6.63;;
12888;SDS011;56848;49.896;11.424;2022-07-23T06:39:46;9.70;;;6.33;;
12888;SDS011;56848;49.896;11.424;2022-07-23T06:42:12;8.23;;;6.20;;
12888;SDS011;56848;49.896;11.424;2022-07-23T06:44:39;9.90;;;6.77;;
12888;SDS011;56848;49.896;11.424;2022-07-23T06:47:05;7.93;;;6.20;;
12888;SDS011;56848;49.896;11.424;2022-07-23T06:49:32;7.10;;;6.27;;
12888;SDS011;56848;49.896;11.424;2022-07-23T06:51:57;10.33;;;6.00;;
12888;SDS011;56848;49.896;11.424;2022-07-23T06:54:23;12.33;;;6.20;;
12888;SDS011;56848;49.896;11.424;2022-07-23T06:56:49;7.60;;;5.90;;
12888;SDS011;56848;49.896;11.424;2022-07-23T06:59:15;9.63;;;6.90;;
12888;SDS011;56848;49.896;11.424;2022-07-23T07:01:42;6.90;;;6.20;;
12888;SDS011;56848;49.896;11.424;2022-07-23T07:04:08;9.27;;;6.57;;
12888;SDS011;56848;49.896;11.424;2022-07-23T07:06:34;10.27;;;6.43;;
12888;SDS011;56848;49.896;11.424;2022-07-23T07:09:00;7.33;;;6.40;;
12888;SDS011;56848;49.896;11.424;2022-07-23T07:11:26;10.10;;;6.90;;
12888;SDS011;56848;49.896;11.424;2022-07-23T07:13:52;10.50;;;6.47;;
12888;SDS011;56848;49.896;11.424;2022-07-23T07:16:17;8.93;;;7.50;;
12888;SDS011;56848;49.896;11.424;2022-07-23T07:18:43;8.93;;;7.33;;
12888;SDS011;56848;49.896;11.424;2022-07-23T07:21:09;8.23;;;7.33;;
12888;SDS011;56848;49.896;11.424;2022-07-23T07:23:35;8.93;;;7.20;;
12888;SDS011;56848;49.896;11.424;2022-07-23T07:26:02;7.93;;;6.87;;
12888;SDS011;56848;49.896;11.424;2022-07-23T07:28:28;11.83;;;7.67;;
12888;SDS011;56848;49.896;11.424;2022-07-23T07:30:54;7.90;;;7.07;;
12888;SDS011;56848;49.896;11.424;2022-07-23T07:33:20;8.70;;;7.30;;
12888;SDS011;56848;49.896;11.424;2022-07-23T07:35:46;12.97;;;7.37;;
12888;SDS011;56848;49.896;11.424;2022-07-23T07:38:12;8.20;;;7.20;;
12888;SDS011;56848;49.896;11.424;2022-07-23T07:40:38;8.47;;;7.57;;
12888;SDS011;56848;49.896;11.424;2022-07-23T07:43:04;9.60;;;8.57;;
12888;SDS011;56848;49.896;11.424;2022-07-23T07:45:30;8.90;;;8.00;;
12888;SDS011;56848;49.896;11.424;2022-07-23T07:47:56;8.27;;;7.47;;
12888;SDS011;56848;49.896;11.424;2022-07-23T07:50:22;11.27;;;8.67;;
12888;SDS011;56848;49.896;11.424;2022-07-23T07:52:49;14.73;;;7.90;;
12888;SDS011;56848;49.896;11.424;2022-07-23T07:55:15;10.47;;;7.83;;
12888;SDS011;56848;49.896;11.424;2022-07-23T07:57:41;10.37;;;8.17;;
12888;SDS011;56848;49.896;11.424;2022-07-23T08:00:08;10.83;;;7.53;;
12888;SDS011;56848;49.896;11.424;2022-07-23T08:02:45;9.90;;;7.40;;
12888;SDS011;56848;49.896;11.424;2022-07-23T08:05:12;8.40;;;7.57;;
12888;SDS011;56848;49.896;11.424;2022-07-23T08:07:38;11.00;;;7.80;;
12888;SDS011;56848;49.896;11.424;2022-07-23T08:10:05;9.07;;;7.40;;
12888;SDS011;56848;49.896;11.424;2022-07-23T08:12:48;10.47;;;7.10;;
12888;SDS011;56848;49.896;11.424;2022-07-23T08:15:15;7.37;;;6.67;;
12888;SDS011;56848;49.896;11.424;2022-07-23T08:17:42;8.00;;;7.17;;
12888;SDS011;56848;49.896;11.424;2022-07-23T08:20:09;13.10;;;7.30;;
12888;SDS011;56848;49.896;11.424;2022-07-23T08:25:08;8.57;;;7.10;;
12888;SDS011;56848;49.896;11.424;2022-07-23T08:27:34;21.70;;;8.07;;
12888;SDS011;56848;49.896;11.424;2022-07-23T08:30:00;12.73;;;7.60;;
12888;SDS011;56848;49.896;11.424;2022-07-23T08:32:26;11.93;;;6.30;;
12888;SDS011;56848;49.896;11.424;2022-07-23T08:34:52;11.00;;;8.00;;
12888;SDS011;56848;49.896;11.424;2022-07-23T08:37:18;11.43;;;8.07;;
12888;SDS011;56848;49.896;11.424;2022-07-23T08:39:44;10.63;;;8.13;;
12888;SDS011;56848;49.896;11.424;2022-07-23T08:42:10;11.10;;;7.47;;
12888;SDS011;56848;49.896;11.424;2022-07-23T08:44:37;10.90;;;8.30;;
12888;SDS011;56848;49.896;11.424;2022-07-23T08:47:04;17.00;;;8.07;;
12888;SDS011;56848;49.896;11.424;2022-07-23T08:49:30;8.53;;;7.73;;
12888;SDS011;56848;49.896;11.424;2022-07-23T08:51:57;8.50;;;7.53;;
12888;SDS011;56848;49.896;11.424;2022-07-23T08:54:23;13.97;;;9.27;;
12888;SDS011;56848;49.896;11.424;2022-07-23T08:56:49;8.63;;;7.40;;
12888;SDS011;56848;49.896;11.424;2022-07-23T08:59:16;7.73;;;6.73;;
12888;SDS011;56848;49.896;11.424;2022-07-23T09:01:42;11.60;;;7.93;;
12888;SDS011;56848;49.896;11.424;2022-07-23T09:04:08;12.23;;;7.83;;
12888;SDS011;56848;49.896;11.424;2022-07-23T09:06:34;8.67;;;7.67;;
12888;SDS011;56848;49.896;11.424;2022-07-23T09:09:16;9.90;;;7.60;;
12888;SDS011;56848;49.896;11.424;2022-07-23T09:11:45;13.70;;;7.90;;
12888;SDS011;56848;49.896;11.424;2022-07-23T09:14:14;9.50;;;7.20;;
12888;SDS011;56848;49.896;11.424;2022-07-23T09:16:40;9.70;;;7.60;;
12888;SDS011;56848;49.896;11.424;2022-07-23T09:19:06;15.53;;;8.60;;
12888;SDS011;56848;49.896;11.424;2022-07-23T09:21:37;10.50;;;8.07;;
12888;SDS011;56848;49.896;11.424;2022-07-23T09:24:08;8.40;;;7.50;;
12888;SDS011;56848;49.896;11.424;2022-07-23T09:26:47;8.50;;;7.40;;
12888;SDS011;56848;49.896;11.424;2022-07-23T09:29:18;9.50;;;7.40;;
12888;SDS011;56848;49.896;11.424;2022-07-23T09:31:55;12.40;;;7.63;;
12888;SDS011;56848;49.896;11.424;2022-07-23T09:36:47;8.17;;;7.37;;
12888;SDS011;56848;49.896;11.424;2022-07-23T09:39:14;11.03;;;7.17;;
12888;SDS011;56848;49.896;11.424;2022-07-23T09:41:43;8.87;;;7.23;;
12888;SDS011;56848;49.896;11.424;2022-07-23T09:44:11;11.40;;;7.57;;
12888;SDS011;56848;49.896;11.424;2022-07-23T09:46:37;13.77;;;6.93;;
12888;SDS011;56848;49.896;11.424;2022-07-23T09:49:12;9.80;;;7.20;;
12888;SDS011;56848;49.896;11.424;2022-07-23T09:51:45;11.73;;;6.83;;
12888;SDS011;56848;49.896;11.424;2022-07-23T09:54:34;9.27;;;7.50;;
12888;SDS011;56848;49.896;11.424;2022-07-23T09:57:03;9.57;;;6.57;;
12888;SDS011;56848;49.896;11.424;2022-07-23T09:59:31;12.17;;;7.77;;
12888;SDS011;56848;49.896;11.424;2022-07-23T10:01:58;8.03;;;6.97;;
12888;SDS011;56848;49.896;11.424;2022-07-23T10:04:25;9.17;;;7.27;;
12888;SDS011;56848;49.896;11.424;2022-07-23T10:06:52;9.23;;;6.43;;
12888;SDS011;56848;49.896;11.424;2022-07-23T10:09:22;9.53;;;6.57;;
12888;SDS011;56848;49.896;11.424;2022-07-23T10:11:48;9.67;;;7.57;;
12888;SDS011;56848;49.896;11.424;2022-07-23T10:14:14;12.40;;;7.73;;
12888;SDS011;56848;49.896;11.424;2022-07-23T10:16:41;7.70;;;6.90;;
12888;SDS011;56848;49.896;11.424;2022-07-23T10:19:07;9.03;;;6.80;;
12888;SDS011;56848;49.896;11.424;2022-07-23T10:26:36;7.00;;;6.30;;
12888;SDS011;56848;49.896;11.424;2022-07-23T10:29:07;21.53;;;7.17;;
12888;SDS011;56848;49.896;11.424;2022-07-23T10:34:15;8.67;;;6.83;;
12888;SDS011;56848;49.896;11.424;2022-07-23T10:36:47;8.90;;;7.13;;
12888;SDS011;56848;49.896;11.424;2022-07-23T10:39:18;9.90;;;7.23;;
12888;SDS011;56848;49.896;11.424;2022-07-23T10:41:45;9.37;;;6.90;;
12888;SDS011;56848;49.896;11.424;2022-07-23T10:49:30;10.87;;;8.07;;
12888;SDS011;56848;49.896;11.424;2022-07-23T10:54:41;7.87;;;6.70;;
12888;SDS011;56848;49.896;11.424;2022-07-23T10:57:08;8.67;;;6.90;;
12888;SDS011;56848;49.896;11.424;2022-07-23T11:02:22;8.90;;;7.17;;
12888;SDS011;56848;49.896;11.424;2022-07-23T11:04:49;10.37;;;7.67;;
12888;SDS011;56848;49.896;11.424;2022-07-23T11:07:16;6.93;;;6.23;;
12888;SDS011;56848;49.896;11.424;2022-07-23T11:09:42;7.07;;;6.47;;
12888;SDS011;56848;49.896;11.424;2022-07-23T11:17:23;9.03;;;7.90;;
12888;SDS011;56848;49.896;11.424;2022-07-23T11:22:36;8.40;;;7.33;;
12888;SDS011;56848;49.896;11.424;2022-07-23T11:25:03;10.57;;;7.20;;
12888;SDS011;56848;49.896;11.424;2022-07-23T11:30:04;14.03;;;7.60;;
12888;SDS011;56848;49.896;11.424;2022-07-23T11:32:32;9.77;;;7.27;;
12888;SDS011;56848;49.896;11.424;2022-07-23T11:35:00;9.63;;;7.43;;
12888;SDS011;56848;49.896;11.424;2022-07-23T11:39:59;9.13;;;8.10;;
12888;SDS011;56848;49.896;11.424;2022-07-23T11:42:26;7.70;;;7.03;;
12888;SDS011;56848;49.896;11.424;2022-07-23T11:44:52;10.33;;;8.30;;
12888;SDS011;56848;49.896;11.424;2022-07-23T11:47:24;9.50;;;8.47;;
12888;SDS011;56848;49.896;11.424;2022-07-23T11:49:54;13.70;;;7.63;;
12888;SDS011;56848;49.896;11.424;2022-07-23T11:52:21;12.60;;;7.87;;
12888;SDS011;56848;49.896;11.424;2022-07-23T11:54:55;8.50;;;7.70;;
12888;SDS011;56848;49.896;11.424;2022-07-23T11:57:24;13.93;;;9.10;;
12888;SDS011;56848;49.896;11.424;2022-07-23T11:59:55;8.97;;;8.07;;
12888;SDS011;56848;49.896;11.424;2022-07-23T12:02:21;9.93;;;7.40;;
12888;SDS011;56848;49.896;11.424;2022-07-23T12:04:49;11.27;;;7.83;;
12888;SDS011;56848;49.896;11.424;2022-07-23T12:09:50;16.27;;;7.40;;
12888;SDS011;56848;49.896;11.424;2022-07-23T12:12:16;9.90;;;7.80;;
12888;SDS011;56848;49.896;11.424;2022-07-23T12:17:14;9.00;;;8.10;;
12888;SDS011;56848;49.896;11.424;2022-07-23T12:19:40;11.07;;;7.90;;
12888;SDS011;56848;49.896;11.424;2022-07-23T12:22:07;13.70;;;8.30;;
12888;SDS011;56848;49.896;11.424;2022-07-23T12:25:19;10.73;;;8.27;;
12888;SDS011;56848;49.896;11.424;2022-07-23T12:27:20;10.40;;;8.40;;
12888;SDS011;56848;49.896;11.424;2022-07-23T12:29:47;11.20;;;8.10;;
12888;SDS011;56848;49.896;11.424;2022-07-23T12:32:16;17.40;;;8.03;;
12888;SDS011;56848;49.896;11.424;2022-07-23T12:34:51;9.47;;;8.00;;
12888;SDS011;56848;49.896;11.424;2022-07-23T12:37:37;12.93;;;9.10;;
12888;SDS011;56848;49.896;11.424;2022-07-23T12:42:55;12.37;;;8.10;;
12888;SDS011;56848;49.896;11.424;2022-07-23T12:45:27;15.33;;;7.10;;
12888;SDS011;56848;49.896;11.424;2022-07-23T12:53:03;10.33;;;8.30;;
12888;SDS011;56848;49.896;11.424;2022-07-23T12:55:28;10.80;;;7.53;;
12888;SDS011;56848;49.896;11.424;2022-07-23T12:58:01;9.47;;;8.10;;
12888;SDS011;56848;49.896;11.424;2022-07-23T13:00:29;14.27;;;8.23;;
12888;SDS011;56848;49.896;11.424;2022-07-23T13:02:55;10.00;;;7.67;;
12888;SDS011;56848;49.896;11.424;2022-07-23T13:05:21;10.47;;;8.47;;
12888;SDS011;56848;49.896;11.424;2022-07-23T13:07:46;9.50;;;7.93;;
12888;SDS011;56848;49.896;11.424;2022-07-23T13:10:12;10.10;;;8.57;;
12888;SDS011;56848;49.896;11.424;2022-07-23T13:12:38;17.37;;;8.40;;
12888;SDS011;56848;49.896;11.424;2022-07-23T13:15:04;9.57;;;7.93;;
12888;SDS011;56848;49.896;11.424;2022-07-23T13:17:31;15.70;;;7.13;;
12888;SDS011;56848;49.896;11.424;2022-07-23T13:19:56;8.53;;;7.63;;
12888;SDS011;56848;49.896;11.424;2022-07-23T13:22:22;12.80;;;7.60;;
12888;SDS011;56848;49.896;11.424;2022-07-23T13:24:48;8.30;;;6.90;;
12888;SDS011;56848;49.896;11.424;2022-07-23T13:27:13;9.13;;;7.63;;
12888;SDS011;56848;49.896;11.424;2022-07-23T13:29:39;7.80;;;7.20;;
12888;SDS011;56848;49.896;11.424;2022-07-23T13:32:05;7.83;;;7.00;;
12888;SDS011;56848;49.896;11.424;2022-07-23T13:34:30;8.57;;;7.10;;
12888;SDS011;56848;49.896;11.424;2022-07-23T13:36:56;7.90;;;6.93;;
12888;SDS011;56848;49.896;11.424;2022-07-23T13:39:21;10.50;;;7.03;;
12888;SDS011;56848;49.896;11.424;2022-07-23T13:41:47;11.43;;;6.73;;
12888;SDS011;56848;49.896;11.424;2022-07-23T13:44:13;7.60;;;6.70;;
12888;SDS011;56848;49.896;11.424;2022-07-23T13:46:38;17.93;;;7.30;;
12888;SDS011;56848;49.896;11.424;2022-07-23T13:49:04;7.77;;;7.03;;
12888;SDS011;56848;49.896;11.424;2022-07-23T13:51:29;9.67;;;6.77;;
12888;SDS011;56848;49.896;11.424;2022-07-23T13:53:55;11.13;;;6.77;;
12888;SDS011;56848;49.896;11.424;2022-07-23T13:56:24;7.83;;;7.03;;
12888;SDS011;56848;49.896;11.424;2022-07-23T13:58:49;10.10;;;6.73;;
12888;SDS011;56848;49.896;11.424;2022-07-23T14:01:15;11.83;;;6.80;;
12888;SDS011;56848;49.896;11.424;2022-07-23T14:03:40;9.60;;;6.83;;
12888;SDS011;56848;49.896;11.424;2022-07-23T14:06:06;8.63;;;7.20;;
12888;SDS011;56848;49.896;11.424;2022-07-23T14:08:32;12.40;;;7.13;;
12888;SDS011;56848;49.896;11.424;2022-07-23T14:10:57;7.17;;;6.47;;
12888;SDS011;56848;49.896;11.424;2022-07-23T14:13:23;15.97;;;7.00;;
12888;SDS011;56848;49.896;11.424;2022-07-23T14:15:49;10.00;;;6.60;;
12888;SDS011;56848;49.896;11.424;2022-07-23T14:18:14;9.00;;;7.30;;
12888;SDS011;56848;49.896;11.424;2022-07-23T14:20:41;9.30;;;6.10;;
12888;SDS011;56848;49.896;11.424;2022-07-23T14:23:07;7.77;;;6.33;;
12888;SDS011;56848;49.896;11.424;2022-07-23T14:25:32;7.33;;;6.00;;
12888;SDS011;56848;49.896;11.424;2022-07-23T14:27:58;7.57;;;6.27;;
12888;SDS011;56848;49.896;11.424;2022-07-23T14:30:23;9.17;;;6.03;;
12888;SDS011;56848;49.896;11.424;2022-07-23T14:32:50;7.13;;;5.77;;
12888;SDS011;56848;49.896;11.424;2022-07-23T14:35:16;9.77;;;5.40;;
12888;SDS011;56848;49.896;11.424;2022-07-23T14:37:41;6.70;;;6.03;;
12888;SDS011;56848;49.896;11.424;2022-07-23T14:40:07;8.30;;;5.93;;
12888;SDS011;56848;49.896;11.424;2022-07-23T14:42:33;6.23;;;5.67;;
12888;SDS011;56848;49.896;11.424;2022-07-23T14:44:58;5.93;;;5.33;;
12888;SDS011;56848;49.896;11.424;2022-07-23T14:47:24;7.20;;;5.73;;
12888;SDS011;56848;49.896;11.424;2022-07-23T14:49:49;7.40;;;6.00;;
12888;SDS011;56848;49.896;11.424;2022-07-23T14:52:15;7.57;;;5.70;;
12888;SDS011;56848;49.896;11.424;2022-07-23T14:54:40;11.63;;;5.77;;
12888;SDS011;56848;49.896;11.424;2022-07-23T14:57:06;12.73;;;5.90;;
12888;SDS011;56848;49.896;11.424;2022-07-23T14:59:34;9.03;;;6.20;;
12888;SDS011;56848;49.896;11.424;2022-07-23T15:02:00;6.77;;;5.63;;
12888;SDS011;56848;49.896;11.424;2022-07-23T15:04:25;12.27;;;6.03;;
12888;SDS011;56848;49.896;11.424;2022-07-23T15:06:51;6.50;;;5.90;;
12888;SDS011;56848;49.896;11.424;2022-07-23T15:09:17;7.53;;;6.13;;
12888;SDS011;56848;49.896;11.424;2022-07-23T15:11:42;6.40;;;5.77;;
12888;SDS011;56848;49.896;11.424;2022-07-23T15:14:08;7.80;;;5.57;;
12888;SDS011;56848;49.896;11.424;2022-07-23T15:16:34;11.80;;;5.83;;
12888;SDS011;56848;49.896;11.424;2022-07-23T15:19:00;8.00;;;6.13;;
12888;SDS011;56848;49.896;11.424;2022-07-23T15:21:26;6.50;;;5.60;;
12888;SDS011;56848;49.896;11.424;2022-07-23T15:23:54;9.83;;;6.13;;
12888;SDS011;56848;49.896;11.424;2022-07-23T15:26:20;8.37;;;6.30;;
12888;SDS011;56848;49.896;11.424;2022-07-23T15:28:48;12.63;;;5.53;;
12888;SDS011;56848;49.896;11.424;2022-07-23T15:31:13;6.17;;;5.30;;
12888;SDS011;56848;49.896;11.424;2022-07-23T15:33:39;7.83;;;5.73;;
12888;SDS011;56848;49.896;11.424;2022-07-23T15:36:05;6.53;;;5.80;;
12888;SDS011;56848;49.896;11.424;2022-07-23T15:38:31;9.50;;;6.10;;
12888;SDS011;56848;49.896;11.424;2022-07-23T15:40:57;6.63;;;5.90;;
12888;SDS011;56848;49.896;11.424;2022-07-23T15:43:23;11.67;;;6.17;;
12888;SDS011;56848;49.896;11.424;2022-07-23T15:45:50;13.17;;;6.40;;
12888;SDS011;56848;49.896;11.424;2022-07-23T15:48:17;6.30;;;5.70;;
12888;SDS011;56848;49.896;11.424;2022-07-23T15:50:43;8.20;;;5.50;;
12888;SDS011;56848;49.896;11.424;2022-07-23T15:53:09;7.40;;;6.57;;
12888;SDS011;56848;49.896;11.424;2022-07-23T15:55:35;6.47;;;5.77;;
12888;SDS011;56848;49.896;11.424;2022-07-23T15:58:02;5.90;;;5.30;;
12888;SDS011;56848;49.896;11.424;2022-07-23T16:00:27;9.97;;;5.93;;
12888;SDS011;56848;49.896;11.424;2022-07-23T16:02:53;8.83;;;5.90;;
12888;SDS011;56848;49.896;11.424;2022-07-23T16:05:18;12.70;;;7.50;;
12888;SDS011;56848;49.896;11.424;2022-07-23T16:07:59;17.13;;;13.40;;
12888;SDS011;56848;49.896;11.424;2022-07-23T16:10:27;6.57;;;5.97;;
12888;SDS011;56848;49.896;11.424;2022-07-23T16:12:53;9.40;;;6.50;;
12888;SDS011;56848;49.896;11.424;2022-07-23T16:15:19;14.57;;;7.83;;
12888;SDS011;56848;49.896;11.424;2022-07-23T16:17:44;11.77;;;5.97;;
12888;SDS011;56848;49.896;11.424;2022-07-23T16:20:10;9.40;;;6.50;;
12888;SDS011;56848;49.896;11.424;2022-07-23T16:22:37;8.80;;;6.17;;
12888;SDS011;56848;49.896;11.424;2022-07-23T16:25:03;8.10;;;6.00;;
12888;SDS011;56848;49.896;11.424;2022-07-23T16:27:34;6.77;;;5.73;;
12888;SDS011;56848;49.896;11.424;2022-07-23T16:30:00;16.57;;;6.17;;
12888;SDS011;56848;49.896;11.424;2022-07-23T16:32:28;8.93;;;5.50;;
12888;SDS011;56848;49.896;11.424;2022-07-23T16:34:54;9.93;;;6.10;;
12888;SDS011;56848;49.896;11.424;2022-07-23T16:37:20;6.57;;;5.80;;
12888;SDS011;56848;49.896;11.424;2022-07-23T16:39:46;6.80;;;6.10;;
12888;SDS011;56848;49.896;11.424;2022-07-23T16:42:12;6.87;;;6.07;;
12888;SDS011;56848;49.896;11.424;2022-07-23T16:44:38;8.50;;;5.70;;
12888;SDS011;56848;49.896;11.424;2022-07-23T16:47:06;10.93;;;5.60;;
12888;SDS011;56848;49.896;11.424;2022-07-23T16:49:32;6.73;;;5.57;;
12888;SDS011;56848;49.896;11.424;2022-07-23T16:51:59;6.07;;;5.40;;
12888;SDS011;56848;49.896;11.424;2022-07-23T16:54:25;10.23;;;5.97;;
12888;SDS011;56848;49.896;11.424;2022-07-23T16:56:52;6.10;;;5.43;;
12888;SDS011;56848;49.896;11.424;2022-07-23T16:59:18;7.07;;;5.33;;
12888;SDS011;56848;49.896;11.424;2022-07-23T17:01:44;11.73;;;4.80;;
12888;SDS011;56848;49.896;11.424;2022-07-23T17:04:10;15.13;;;5.30;;
12888;SDS011;56848;49.896;11.424;2022-07-23T17:06:36;6.00;;;5.40;;
12888;SDS011;56848;49.896;11.424;2022-07-23T17:09:03;7.80;;;5.40;;
12888;SDS011;56848;49.896;11.424;2022-07-23T17:11:29;12.67;;;5.77;;
12888;SDS011;56848;49.896;11.424;2022-07-23T17:13:55;6.40;;;5.60;;
12888;SDS011;56848;49.896;11.424;2022-07-23T17:16:21;7.13;;;4.83;;
12888;SDS011;56848;49.896;11.424;2022-07-23T17:18:47;7.70;;;5.27;;
12888;SDS011;56848;49.896;11.424;2022-07-23T17:21:13;6.43;;;5.47;;
12888;SDS011;56848;49.896;11.424;2022-07-23T17:23:39;5.97;;;5.20;;
12888;SDS011;56848;49.896;11.424;2022-07-23T17:26:05;6.63;;;6.00;;
12888;SDS011;56848;49.896;11.424;2022-07-23T17:28:31;5.80;;;5.20;;
12888;SDS011;56848;49.896;11.424;2022-07-23T17:30:57;6.80;;;5.17;;
12888;SDS011;56848;49.896;11.424;2022-07-23T17:33:23;7.60;;;5.40;;
12888;SDS011;56848;49.896;11.424;2022-07-23T17:35:49;5.97;;;5.07;;
12888;SDS011;56848;49.896;11.424;2022-07-23T17:38:17;7.70;;;5.43;;
12888;SDS011;56848;49.896;11.424;2022-07-23T17:40:43;5.90;;;5.13;;
12888;SDS011;56848;49.896;11.424;2022-07-23T17:43:09;9.37;;;5.73;;
12888;SDS011;56848;49.896;11.424;2022-07-23T17:45:35;6.50;;;5.57;;
12888;SDS011;56848;49.896;11.424;2022-07-23T17:48:02;5.90;;;4.93;;
12888;SDS011;56848;49.896;11.424;2022-07-23T17:50:28;6.00;;;5.40;;
12888;SDS011;56848;49.896;11.424;2022-07-23T17:52:54;6.17;;;5.00;;
12888;SDS011;56848;49.896;11.424;2022-07-23T17:55:21;6.93;;;5.73;;
12888;SDS011;56848;49.896;11.424;2022-07-23T17:57:48;11.27;;;7.33;;
12888;SDS011;56848;49.896;11.424;2022-07-23T18:00:14;6.27;;;5.13;;
12888;SDS011;56848;49.896;11.424;2022-07-23T18:02:41;6.07;;;5.50;;
12888;SDS011;56848;49.896;11.424;2022-07-23T18:05:07;5.73;;;5.13;;
12888;SDS011;56848;49.896;11.424;2022-07-23T18:07:34;6.60;;;5.93;;
12888;SDS011;56848;49.896;11.424;2022-07-23T18:10:00;8.20;;;5.90;;
12888;SDS011;56848;49.896;11.424;2022-07-23T18:12:26;8.70;;;5.63;;
12888;SDS011;56848;49.896;11.424;2022-07-23T18:14:52;6.83;;;6.23;;
12888;SDS011;56848;49.896;11.424;2022-07-23T18:17:19;7.67;;;6.27;;
12888;SDS011;56848;49.896;11.424;2022-07-23T18:19:45;9.00;;;5.43;;
12888;SDS011;56848;49.896;11.424;2022-07-23T18:22:11;6.30;;;5.70;;
12888;SDS011;56848;49.896;11.424;2022-07-23T18:24:38;6.20;;;5.60;;
12888;SDS011;56848;49.896;11.424;2022-07-23T18:27:04;6.17;;;5.57;;
12888;SDS011;56848;49.896;11.424;2022-07-23T18:29:30;7.20;;;5.90;;
12888;SDS011;56848;49.896;11.424;2022-07-23T18:31:56;6.17;;;5.57;;
12888;SDS011;56848;49.896;11.424;2022-07-23T18:34:22;8.43;;;5.60;;
12888;SDS011;56848;49.896;11.424;2022-07-23T18:36:48;5.80;;;5.20;;
12888;SDS011;56848;49.896;11.424;2022-07-23T18:39:14;6.13;;;5.07;;
12888;SDS011;56848;49.896;11.424;2022-07-23T18:41:40;6.10;;;5.33;;
12888;SDS011;56848;49.896;11.424;2022-07-23T18:44:06;7.50;;;5.37;;
12888;SDS011;56848;49.896;11.424;2022-07-23T18:46:32;5.33;;;4.83;;
12888;SDS011;56848;49.896;11.424;2022-07-23T18:48:58;6.03;;;5.33;;
12888;SDS011;56848;49.896;11.424;2022-07-23T18:51:24;7.40;;;5.27;;
12888;SDS011;56848;49.896;11.424;2022-07-23T18:53:51;6.03;;;5.43;;
12888;SDS011;56848;49.896;11.424;2022-07-23T18:56:17;6.00;;;5.40;;
12888;SDS011;56848;49.896;11.424;2022-07-23T18:58:44;6.17;;;5.40;;
12888;SDS011;56848;49.896;11.424;2022-07-23T19:01:10;9.20;;;5.40;;
12888;SDS011;56848;49.896;11.424;2022-07-23T19:03:37;5.37;;;4.97;;
12888;SDS011;56848;49.896;11.424;2022-07-23T19:06:03;8.20;;;6.00;;
12888;SDS011;56848;49.896;11.424;2022-07-23T19:08:29;7.90;;;5.17;;
12888;SDS011;56848;49.896;11.424;2022-07-23T19:10:56;7.17;;;6.50;;
12888;SDS011;56848;49.896;11.424;2022-07-23T19:13:22;7.60;;;6.90;;
12888;SDS011;56848;49.896;11.424;2022-07-23T19:15:48;8.80;;;6.10;;
12888;SDS011;56848;49.896;11.424;2022-07-23T19:18:14;9.07;;;6.30;;
12888;SDS011;56848;49.896;11.424;2022-07-23T19:20:40;14.60;;;6.67;;